Terminal Aerodrome Forecast
Issued by NWS

Home | Current Version | Previous Version | Text Only | Print | Product List | Glossary On
Versions: 1 2 3 4 5 6 7 8 9 10 11 12 13 14 15 16
000
FTUS44 KBMX 231700 RRA
TAFANB
TAF
KANB 231742Z 2318/2418 05009KT 4SM SHRA BR OVC006
      TEMPO 2319/2323 13010G20KT 2SM TSRA OVC006CB
     FM232300 15010G18KT P6SM OVC010
     FM240300 23008KT 4SM BR OVC010
     FM241500 24015KT P6SM OVC020=

USA.gov is the U.S. government's official web portal to all federal, state and local government web resources and services.